sensor_id;sensor_type;location;lat;lon;timestamp;P1;durP1;ratioP1;P2;durP2;ratioP2
35074;SDS011;21260;34.984;32.490;2023-07-29T00:02:18;7.60;;;5.07;;
35074;SDS011;21260;34.984;32.490;2023-07-29T00:04:44;8.77;;;5.00;;
35074;SDS011;21260;34.984;32.490;2023-07-29T00:07:11;8.17;;;5.00;;
35074;SDS011;21260;34.984;32.490;2023-07-29T00:09:37;13.17;;;5.53;;
35074;SDS011;21260;34.984;32.490;2023-07-29T00:12:03;8.53;;;5.10;;
35074;SDS011;21260;34.984;32.490;2023-07-29T00:14:30;10.50;;;5.20;;
35074;SDS011;21260;34.984;32.490;2023-07-29T00:16:56;10.73;;;4.90;;
35074;SDS011;21260;34.984;32.490;2023-07-29T00:19:22;10.63;;;5.17;;
35074;SDS011;21260;34.984;32.490;2023-07-29T00:21:49;9.83;;;5.30;;
35074;SDS011;21260;34.984;32.490;2023-07-29T00:24:15;13.53;;;5.13;;
35074;SDS011;21260;34.984;32.490;2023-07-29T00:26:41;10.53;;;5.13;;
35074;SDS011;21260;34.984;32.490;2023-07-29T00:29:07;8.37;;;4.80;;
35074;SDS011;21260;34.984;32.490;2023-07-29T00:31:34;10.40;;;5.50;;
35074;SDS011;21260;34.984;32.490;2023-07-29T00:34:00;7.80;;;5.00;;
35074;SDS011;21260;34.984;32.490;2023-07-29T00:36:26;9.33;;;5.20;;
35074;SDS011;21260;34.984;32.490;2023-07-29T00:38:52;10.90;;;5.83;;
35074;SDS011;21260;34.984;32.490;2023-07-29T00:41:19;14.33;;;5.30;;
35074;SDS011;21260;34.984;32.490;2023-07-29T00:43:48;13.57;;;5.47;;
35074;SDS011;21260;34.984;32.490;2023-07-29T00:46:14;10.17;;;5.00;;
35074;SDS011;21260;34.984;32.490;2023-07-29T00:48:42;9.73;;;5.30;;
35074;SDS011;21260;34.984;32.490;2023-07-29T00:51:08;9.03;;;5.10;;
35074;SDS011;21260;34.984;32.490;2023-07-29T00:53:35;13.00;;;5.10;;
35074;SDS011;21260;34.984;32.490;2023-07-29T00:56:01;11.87;;;4.83;;
35074;SDS011;21260;34.984;32.490;2023-07-29T00:58:28;12.73;;;5.17;;
35074;SDS011;21260;34.984;32.490;2023-07-29T01:00:54;10.43;;;4.57;;
35074;SDS011;21260;34.984;32.490;2023-07-29T01:03:21;11.93;;;5.33;;
35074;SDS011;21260;34.984;32.490;2023-07-29T01:09:09;11.47;;;5.07;;
35074;SDS011;21260;34.984;32.490;2023-07-29T01:15:34;13.93;;;5.17;;
35074;SDS011;21260;34.984;32.490;2023-07-29T01:18:31;8.07;;;4.73;;
35074;SDS011;21260;34.984;32.490;2023-07-29T01:21:03;10.77;;;4.87;;
35074;SDS011;21260;34.984;32.490;2023-07-29T01:23:33;12.10;;;4.40;;
35074;SDS011;21260;34.984;32.490;2023-07-29T01:26:02;8.33;;;4.80;;
35074;SDS011;21260;34.984;32.490;2023-07-29T01:28:29;9.87;;;4.73;;
35074;SDS011;21260;34.984;32.490;2023-07-29T01:30:57;8.47;;;4.57;;
35074;SDS011;21260;34.984;32.490;2023-07-29T01:34:17;8.40;;;5.03;;
35074;SDS011;21260;34.984;32.490;2023-07-29T01:36:54;9.53;;;4.90;;
35074;SDS011;21260;34.984;32.490;2023-07-29T01:39:25;8.80;;;4.53;;
35074;SDS011;21260;34.984;32.490;2023-07-29T01:41:54;12.17;;;4.87;;
35074;SDS011;21260;34.984;32.490;2023-07-29T01:44:21;16.80;;;5.27;;
35074;SDS011;21260;34.984;32.490;2023-07-29T01:46:47;11.83;;;4.93;;
35074;SDS011;21260;34.984;32.490;2023-07-29T01:49:15;8.70;;;5.20;;
35074;SDS011;21260;34.984;32.490;2023-07-29T01:51:41;10.87;;;4.70;;
35074;SDS011;21260;34.984;32.490;2023-07-29T01:54:08;14.33;;;6.07;;
35074;SDS011;21260;34.984;32.490;2023-07-29T01:56:34;13.23;;;5.00;;
35074;SDS011;21260;34.984;32.490;2023-07-29T01:59:02;8.47;;;4.80;;
35074;SDS011;21260;34.984;32.490;2023-07-29T02:01:28;10.47;;;5.10;;
35074;SDS011;21260;34.984;32.490;2023-07-29T02:03:56;9.97;;;4.70;;
35074;SDS011;21260;34.984;32.490;2023-07-29T02:06:22;11.63;;;5.37;;
35074;SDS011;21260;34.984;32.490;2023-07-29T02:08:48;10.83;;;4.83;;
35074;SDS011;21260;34.984;32.490;2023-07-29T02:11:15;10.87;;;5.10;;
35074;SDS011;21260;34.984;32.490;2023-07-29T02:13:41;13.17;;;5.57;;
35074;SDS011;21260;34.984;32.490;2023-07-29T02:16:07;7.87;;;4.90;;
35074;SDS011;21260;34.984;32.490;2023-07-29T02:18:33;15.10;;;4.80;;
35074;SDS011;21260;34.984;32.490;2023-07-29T02:21:00;12.63;;;5.27;;
35074;SDS011;21260;34.984;32.490;2023-07-29T02:23:26;13.57;;;4.60;;
35074;SDS011;21260;34.984;32.490;2023-07-29T02:25:52;14.53;;;5.67;;
35074;SDS011;21260;34.984;32.490;2023-07-29T02:28:18;11.70;;;5.07;;
35074;SDS011;21260;34.984;32.490;2023-07-29T02:30:45;7.90;;;4.70;;
35074;SDS011;21260;34.984;32.490;2023-07-29T02:33:11;14.87;;;4.70;;
35074;SDS011;21260;34.984;32.490;2023-07-29T02:35:38;14.90;;;5.10;;
35074;SDS011;21260;34.984;32.490;2023-07-29T02:38:04;11.17;;;5.03;;
35074;SDS011;21260;34.984;32.490;2023-07-29T02:40:30;10.47;;;4.87;;
35074;SDS011;21260;34.984;32.490;2023-07-29T02:42:56;15.07;;;5.83;;
35074;SDS011;21260;34.984;32.490;2023-07-29T02:45:22;12.43;;;5.90;;
35074;SDS011;21260;34.984;32.490;2023-07-29T02:47:49;9.80;;;4.77;;
35074;SDS011;21260;34.984;32.490;2023-07-29T02:50:15;19.47;;;5.07;;
35074;SDS011;21260;34.984;32.490;2023-07-29T02:52:41;14.27;;;5.37;;
35074;SDS011;21260;34.984;32.490;2023-07-29T02:55:07;11.63;;;5.03;;
35074;SDS011;21260;34.984;32.490;2023-07-29T02:57:33;15.00;;;5.43;;
35074;SDS011;21260;34.984;32.490;2023-07-29T03:00:00;12.90;;;5.63;;
35074;SDS011;21260;34.984;32.490;2023-07-29T03:02:26;9.03;;;5.23;;
35074;SDS011;21260;34.984;32.490;2023-07-29T03:04:52;17.23;;;6.03;;
35074;SDS011;21260;34.984;32.490;2023-07-29T03:07:18;16.70;;;5.43;;
35074;SDS011;21260;34.984;32.490;2023-07-29T03:09:45;9.73;;;4.93;;
35074;SDS011;21260;34.984;32.490;2023-07-29T03:12:12;18.80;;;5.73;;
35074;SDS011;21260;34.984;32.490;2023-07-29T03:14:38;11.70;;;5.10;;
35074;SDS011;21260;34.984;32.490;2023-07-29T03:17:06;9.83;;;5.57;;
35074;SDS011;21260;34.984;32.490;2023-07-29T03:19:32;8.97;;;5.13;;
35074;SDS011;21260;34.984;32.490;2023-07-29T03:21:59;10.50;;;5.20;;
35074;SDS011;21260;34.984;32.490;2023-07-29T03:24:25;13.73;;;5.17;;
35074;SDS011;21260;34.984;32.490;2023-07-29T03:26:51;10.97;;;5.57;;
35074;SDS011;21260;34.984;32.490;2023-07-29T03:29:17;7.60;;;5.00;;
35074;SDS011;21260;34.984;32.490;2023-07-29T03:31:43;11.43;;;5.37;;
35074;SDS011;21260;34.984;32.490;2023-07-29T03:34:10;8.67;;;5.00;;
35074;SDS011;21260;34.984;32.490;2023-07-29T03:36:37;11.93;;;5.47;;
35074;SDS011;21260;34.984;32.490;2023-07-29T03:39:03;13.57;;;4.83;;
35074;SDS011;21260;34.984;32.490;2023-07-29T03:41:30;11.03;;;5.27;;
35074;SDS011;21260;34.984;32.490;2023-07-29T03:43:56;11.77;;;4.97;;
35074;SDS011;21260;34.984;32.490;2023-07-29T03:46:22;12.00;;;5.53;;
35074;SDS011;21260;34.984;32.490;2023-07-29T03:48:50;15.60;;;6.00;;
35074;SDS011;21260;34.984;32.490;2023-07-29T03:51:16;11.90;;;5.60;;
35074;SDS011;21260;34.984;32.490;2023-07-29T03:53:43;12.50;;;5.80;;
35074;SDS011;21260;34.984;32.490;2023-07-29T03:56:09;9.40;;;5.20;;
35074;SDS011;21260;34.984;32.490;2023-07-29T03:58:36;13.70;;;5.80;;
35074;SDS011;21260;34.984;32.490;2023-07-29T04:01:02;13.40;;;5.43;;
35074;SDS011;21260;34.984;32.490;2023-07-29T04:03:29;11.43;;;5.03;;
35074;SDS011;21260;34.984;32.490;2023-07-29T04:05:57;12.73;;;5.73;;
35074;SDS011;21260;34.984;32.490;2023-07-29T04:08:23;12.40;;;5.57;;
35074;SDS011;21260;34.984;32.490;2023-07-29T04:10:49;11.73;;;5.73;;
35074;SDS011;21260;34.984;32.490;2023-07-29T04:13:16;10.33;;;5.13;;
35074;SDS011;21260;34.984;32.490;2023-07-29T04:15:42;8.90;;;5.50;;
35074;SDS011;21260;34.984;32.490;2023-07-29T04:18:08;17.40;;;5.17;;
35074;SDS011;21260;34.984;32.490;2023-07-29T04:20:35;12.47;;;5.27;;
35074;SDS011;21260;34.984;32.490;2023-07-29T04:23:01;7.73;;;4.77;;
35074;SDS011;21260;34.984;32.490;2023-07-29T04:25:27;10.13;;;5.50;;
35074;SDS011;21260;34.984;32.490;2023-07-29T04:27:53;12.30;;;5.33;;
35074;SDS011;21260;34.984;32.490;2023-07-29T04:30:20;11.60;;;5.53;;
35074;SDS011;21260;34.984;32.490;2023-07-29T04:32:47;10.63;;;5.23;;
35074;SDS011;21260;34.984;32.490;2023-07-29T04:35:13;12.07;;;5.33;;
35074;SDS011;21260;34.984;32.490;2023-07-29T04:37:40;11.20;;;6.00;;
35074;SDS011;21260;34.984;32.490;2023-07-29T04:40:06;17.10;;;5.80;;
35074;SDS011;21260;34.984;32.490;2023-07-29T04:42:33;11.23;;;5.77;;
35074;SDS011;21260;34.984;32.490;2023-07-29T04:44:59;11.07;;;5.50;;
35074;SDS011;21260;34.984;32.490;2023-07-29T04:47:25;13.47;;;5.70;;
35074;SDS011;21260;34.984;32.490;2023-07-29T04:49:51;14.10;;;6.00;;
35074;SDS011;21260;34.984;32.490;2023-07-29T04:52:17;10.80;;;5.63;;
35074;SDS011;21260;34.984;32.490;2023-07-29T04:54:44;12.47;;;5.77;;
35074;SDS011;21260;34.984;32.490;2023-07-29T04:57:11;18.47;;;6.03;;
35074;SDS011;21260;34.984;32.490;2023-07-29T04:59:37;10.47;;;5.60;;
35074;SDS011;21260;34.984;32.490;2023-07-29T05:02:03;12.03;;;5.83;;
35074;SDS011;21260;34.984;32.490;2023-07-29T05:04:30;12.07;;;5.47;;
35074;SDS011;21260;34.984;32.490;2023-07-29T05:06:56;7.93;;;5.00;;
35074;SDS011;21260;34.984;32.490;2023-07-29T05:09:23;15.47;;;6.07;;
35074;SDS011;21260;34.984;32.490;2023-07-29T05:11:49;13.77;;;5.97;;
35074;SDS011;21260;34.984;32.490;2023-07-29T05:14:16;10.67;;;5.63;;
35074;SDS011;21260;34.984;32.490;2023-07-29T05:16:43;16.40;;;5.73;;
35074;SDS011;21260;34.984;32.490;2023-07-29T05:19:10;11.60;;;5.43;;
35074;SDS011;21260;34.984;32.490;2023-07-29T05:21:37;12.90;;;6.00;;
35074;SDS011;21260;34.984;32.490;2023-07-29T05:24:04;10.17;;;5.10;;
35074;SDS011;21260;34.984;32.490;2023-07-29T05:26:30;12.63;;;5.90;;
35074;SDS011;21260;34.984;32.490;2023-07-29T05:28:56;9.67;;;4.83;;
35074;SDS011;21260;34.984;32.490;2023-07-29T05:31:23;9.33;;;5.23;;
35074;SDS011;21260;34.984;32.490;2023-07-29T05:33:50;11.03;;;5.30;;
35074;SDS011;21260;34.984;32.490;2023-07-29T05:36:16;10.83;;;6.00;;
35074;SDS011;21260;34.984;32.490;2023-07-29T05:38:42;7.63;;;5.23;;
35074;SDS011;21260;34.984;32.490;2023-07-29T05:41:09;12.50;;;6.17;;
35074;SDS011;21260;34.984;32.490;2023-07-29T05:43:35;8.00;;;4.93;;
35074;SDS011;21260;34.984;32.490;2023-07-29T05:46:01;18.53;;;5.83;;
35074;SDS011;21260;34.984;32.490;2023-07-29T05:48:27;8.83;;;5.07;;
35074;SDS011;21260;34.984;32.490;2023-07-29T05:50:53;9.35;;;5.43;;
35074;SDS011;21260;34.984;32.490;2023-07-29T05:53:20;15.83;;;5.73;;
35074;SDS011;21260;34.984;32.490;2023-07-29T05:55:46;13.43;;;5.15;;
35074;SDS011;21260;34.984;32.490;2023-07-29T05:58:12;8.77;;;5.70;;
35074;SDS011;21260;34.984;32.490;2023-07-29T06:00:38;9.75;;;4.97;;
35074;SDS011;21260;34.984;32.490;2023-07-29T06:03:04;14.98;;;5.20;;
35074;SDS011;21260;34.984;32.490;2023-07-29T06:05:30;17.30;;;5.55;;
35074;SDS011;21260;34.984;32.490;2023-07-29T06:07:57;10.50;;;6.00;;
35074;SDS011;21260;34.984;32.490;2023-07-29T06:10:24;12.35;;;5.63;;
35074;SDS011;21260;34.984;32.490;2023-07-29T06:12:50;16.75;;;5.93;;
35074;SDS011;21260;34.984;32.490;2023-07-29T06:15:16;11.30;;;6.00;;
35074;SDS011;21260;34.984;32.490;2023-07-29T06:17:42;17.52;;;6.03;;
35074;SDS011;21260;34.984;32.490;2023-07-29T06:20:09;12.55;;;5.90;;
35074;SDS011;21260;34.984;32.490;2023-07-29T06:22:35;9.35;;;5.95;;
35074;SDS011;21260;34.984;32.490;2023-07-29T06:25:02;13.60;;;5.72;;
35074;SDS011;21260;34.984;32.490;2023-07-29T06:27:28;14.77;;;6.45;;
35074;SDS011;21260;34.984;32.490;2023-07-29T06:29:54;12.90;;;6.07;;
35074;SDS011;21260;34.984;32.490;2023-07-29T06:32:20;15.02;;;6.05;;
35074;SDS011;21260;34.984;32.490;2023-07-29T06:34:47;14.13;;;6.03;;
35074;SDS011;21260;34.984;32.490;2023-07-29T06:37:13;13.40;;;6.10;;
35074;SDS011;21260;34.984;32.490;2023-07-29T06:39:39;16.98;;;6.45;;
35074;SDS011;21260;34.984;32.490;2023-07-29T06:42:05;9.98;;;5.93;;
35074;SDS011;21260;34.984;32.490;2023-07-29T06:44:32;16.85;;;6.28;;
35074;SDS011;21260;34.984;32.490;2023-07-29T06:46:58;12.43;;;6.00;;
35074;SDS011;21260;34.984;32.490;2023-07-29T06:49:25;10.00;;;5.60;;
35074;SDS011;21260;34.984;32.490;2023-07-29T06:51:51;13.88;;;5.90;;
35074;SDS011;21260;34.984;32.490;2023-07-29T06:54:17;13.40;;;5.75;;
35074;SDS011;21260;34.984;32.490;2023-07-29T06:56:44;12.02;;;5.72;;
35074;SDS011;21260;34.984;32.490;2023-07-29T06:59:10;17.60;;;6.47;;
35074;SDS011;21260;34.984;32.490;2023-07-29T07:01:36;13.82;;;5.38;;
35074;SDS011;21260;34.984;32.490;2023-07-29T07:04:02;15.93;;;5.97;;
35074;SDS011;21260;34.984;32.490;2023-07-29T07:06:28;14.63;;;6.07;;
35074;SDS011;21260;34.984;32.490;2023-07-29T07:08:55;11.10;;;5.47;;
35074;SDS011;21260;34.984;32.490;2023-07-29T07:11:21;13.77;;;6.03;;
35074;SDS011;21260;34.984;32.490;2023-07-29T07:13:47;16.98;;;6.07;;
35074;SDS011;21260;34.984;32.490;2023-07-29T07:16:13;15.35;;;6.43;;
35074;SDS011;21260;34.984;32.490;2023-07-29T07:18:40;13.35;;;5.60;;
35074;SDS011;21260;34.984;32.490;2023-07-29T07:21:06;16.00;;;6.38;;
35074;SDS011;21260;34.984;32.490;2023-07-29T07:23:32;10.13;;;5.75;;
35074;SDS011;21260;34.984;32.490;2023-07-29T07:25:58;17.13;;;5.75;;
35074;SDS011;21260;34.984;32.490;2023-07-29T07:28:25;14.63;;;6.18;;
35074;SDS011;21260;34.984;32.490;2023-07-29T07:30:51;16.08;;;6.25;;
35074;SDS011;21260;34.984;32.490;2023-07-29T07:33:18;19.05;;;5.22;;
35074;SDS011;21260;34.984;32.490;2023-07-29T07:35:44;14.90;;;5.57;;
35074;SDS011;21260;34.984;32.490;2023-07-29T07:38:10;15.52;;;6.10;;
35074;SDS011;21260;34.984;32.490;2023-07-29T07:40:36;18.95;;;6.05;;
35074;SDS011;21260;34.984;32.490;2023-07-29T07:43:02;14.07;;;5.63;;
35074;SDS011;21260;34.984;32.490;2023-07-29T07:45:29;11.55;;;5.22;;
35074;SDS011;21260;34.984;32.490;2023-07-29T07:47:57;9.52;;;5.40;;
35074;SDS011;21260;34.984;32.490;2023-07-29T07:50:23;11.57;;;5.63;;
35074;SDS011;21260;34.984;32.490;2023-07-29T07:52:49;12.38;;;5.70;;
35074;SDS011;21260;34.984;32.490;2023-07-29T07:55:15;14.32;;;6.35;;
35074;SDS011;21260;34.984;32.490;2023-07-29T07:57:42;11.38;;;5.55;;
35074;SDS011;21260;34.984;32.490;2023-07-29T08:00:08;15.75;;;5.90;;
35074;SDS011;21260;34.984;32.490;2023-07-29T08:02:35;13.98;;;6.15;;
35074;SDS011;21260;34.984;32.490;2023-07-29T08:05:01;13.00;;;5.50;;
35074;SDS011;21260;34.984;32.490;2023-07-29T08:07:27;16.25;;;6.05;;
35074;SDS011;21260;34.984;32.490;2023-07-29T08:09:54;8.68;;;5.78;;
35074;SDS011;21260;34.984;32.490;2023-07-29T08:12:20;12.48;;;5.90;;
35074;SDS011;21260;34.984;32.490;2023-07-29T08:14:46;9.75;;;5.20;;
35074;SDS011;21260;34.984;32.490;2023-07-29T08:17:12;18.70;;;6.15;;
35074;SDS011;21260;34.984;32.490;2023-07-29T08:19:39;13.38;;;5.93;;
35074;SDS011;21260;34.984;32.490;2023-07-29T08:22:06;17.20;;;6.28;;
35074;SDS011;21260;34.984;32.490;2023-07-29T08:24:33;16.45;;;5.97;;
35074;SDS011;21260;34.984;32.490;2023-07-29T08:26:59;15.23;;;5.60;;
35074;SDS011;21260;34.984;32.490;2023-07-29T08:29:26;18.38;;;6.82;;
35074;SDS011;21260;34.984;32.490;2023-07-29T08:31:52;11.43;;;5.65;;
35074;SDS011;21260;34.984;32.490;2023-07-29T08:34:20;13.52;;;5.28;;
35074;SDS011;21260;34.984;32.490;2023-07-29T08:36:46;13.00;;;5.68;;
35074;SDS011;21260;34.984;32.490;2023-07-29T08:39:13;13.82;;;5.50;;
35074;SDS011;21260;34.984;32.490;2023-07-29T08:44:41;17.15;;;5.65;;
35074;SDS011;21260;34.984;32.490;2023-07-29T08:47:09;15.75;;;5.50;;
35074;SDS011;21260;34.984;32.490;2023-07-29T08:49:38;12.95;;;5.88;;
35074;SDS011;21260;34.984;32.490;2023-07-29T08:52:06;17.67;;;5.60;;
35074;SDS011;21260;34.984;32.490;2023-07-29T08:54:35;14.63;;;5.53;;
35074;SDS011;21260;34.984;32.490;2023-07-29T08:57:01;14.85;;;6.15;;
35074;SDS011;21260;34.984;32.490;2023-07-29T08:59:29;13.18;;;5.72;;
35074;SDS011;21260;34.984;32.490;2023-07-29T09:01:55;14.48;;;5.93;;
35074;SDS011;21260;34.984;32.490;2023-07-29T09:04:23;12.82;;;5.85;;
35074;SDS011;21260;34.984;32.490;2023-07-29T09:06:50;11.20;;;5.75;;
35074;SDS011;21260;34.984;32.490;2023-07-29T09:09:18;10.35;;;6.00;;
35074;SDS011;21260;34.984;32.490;2023-07-29T09:11:47;15.25;;;5.63;;
35074;SDS011;21260;34.984;32.490;2023-07-29T09:14:14;13.40;;;6.40;;
35074;SDS011;21260;34.984;32.490;2023-07-29T09:16:40;11.48;;;6.03;;
35074;SDS011;21260;34.984;32.490;2023-07-29T09:19:07;12.68;;;5.60;;
35074;SDS011;21260;34.984;32.490;2023-07-29T09:21:33;16.33;;;6.05;;
35074;SDS011;21260;34.984;32.490;2023-07-29T09:24:04;17.13;;;5.95;;
35074;SDS011;21260;34.984;32.490;2023-07-29T09:26:32;16.30;;;6.25;;
35074;SDS011;21260;34.984;32.490;2023-07-29T09:28:59;12.57;;;5.75;;
35074;SDS011;21260;34.984;32.490;2023-07-29T09:31:26;12.45;;;6.10;;
35074;SDS011;21260;34.984;32.490;2023-07-29T09:33:58;16.80;;;5.63;;
35074;SDS011;21260;34.984;32.490;2023-07-29T09:36:29;11.93;;;6.32;;
35074;SDS011;21260;34.984;32.490;2023-07-29T09:38:58;10.07;;;5.45;;
35074;SDS011;21260;34.984;32.490;2023-07-29T09:41:26;13.45;;;6.30;;
35074;SDS011;21260;34.984;32.490;2023-07-29T09:43:56;17.38;;;6.38;;
35074;SDS011;21260;34.984;32.490;2023-07-29T09:46:31;12.20;;;6.43;;
35074;SDS011;21260;34.984;32.490;2023-07-29T09:49:03;13.55;;;6.07;;
35074;SDS011;21260;34.984;32.490;2023-07-29T09:51:31;16.98;;;6.38;;
35074;SDS011;21260;34.984;32.490;2023-07-29T09:54:04;18.30;;;6.20;;
35074;SDS011;21260;34.984;32.490;2023-07-29T09:56:31;16.75;;;6.68;;
35074;SDS011;21260;34.984;32.490;2023-07-29T09:58:58;16.85;;;5.95;;
35074;SDS011;21260;34.984;32.490;2023-07-29T10:01:24;11.57;;;5.97;;
35074;SDS011;21260;34.984;32.490;2023-07-29T10:03:51;11.45;;;5.57;;
35074;SDS011;21260;34.984;32.490;2023-07-29T10:06:18;20.95;;;6.05;;
35074;SDS011;21260;34.984;32.490;2023-07-29T10:08:45;16.27;;;6.43;;
35074;SDS011;21260;34.984;32.490;2023-07-29T10:11:14;15.00;;;6.00;;
35074;SDS011;21260;34.984;32.490;2023-07-29T10:13:45;15.02;;;6.07;;
35074;SDS011;21260;34.984;32.490;2023-07-29T10:16:12;13.82;;;5.78;;
35074;SDS011;21260;34.984;32.490;2023-07-29T10:18:40;14.00;;;5.90;;
35074;SDS011;21260;34.984;32.490;2023-07-29T10:21:08;10.00;;;5.45;;
35074;SDS011;21260;34.984;32.490;2023-07-29T10:23:38;14.63;;;5.95;;
35074;SDS011;21260;34.984;32.490;2023-07-29T10:26:14;17.27;;;6.07;;
35074;SDS011;21260;34.984;32.490;2023-07-29T10:28:46;14.88;;;6.38;;
35074;SDS011;21260;34.984;32.490;2023-07-29T10:31:18;15.10;;;6.10;;
35074;SDS011;21260;34.984;32.490;2023-07-29T10:33:48;14.80;;;5.97;;
35074;SDS011;21260;34.984;32.490;2023-07-29T10:36:15;9.80;;;5.63;;
35074;SDS011;21260;34.984;32.490;2023-07-29T10:38:42;14.63;;;5.88;;
35074;SDS011;21260;34.984;32.490;2023-07-29T10:41:09;13.10;;;5.55;;
35074;SDS011;21260;34.984;32.490;2023-07-29T10:43:36;19.67;;;6.63;;
35074;SDS011;21260;34.984;32.490;2023-07-29T10:51:26;12.13;;;5.80;;
35074;SDS011;21260;34.984;32.490;2023-07-29T10:56:29;16.67;;;5.72;;
35074;SDS011;21260;34.984;32.490;2023-07-29T11:01:43;16.98;;;5.68;;
35074;SDS011;21260;34.984;32.490;2023-07-29T11:09:42;13.13;;;5.60;;
35074;SDS011;21260;34.984;32.490;2023-07-29T11:20:19;13.77;;;5.45;;
35074;SDS011;21260;34.984;32.490;2023-07-29T11:22:58;13.38;;;5.07;;
35074;SDS011;21260;34.984;32.490;2023-07-29T11:25:27;14.20;;;5.53;;
35074;SDS011;21260;34.984;32.490;2023-07-29T11:27:56;12.25;;;5.20;;
35074;SDS011;21260;34.984;32.490;2023-07-29T11:30:25;12.65;;;4.68;;
35074;SDS011;21260;34.984;32.490;2023-07-29T11:32:53;15.00;;;5.05;;
35074;SDS011;21260;34.984;32.490;2023-07-29T11:35:20;17.33;;;4.72;;
35074;SDS011;21260;34.984;32.490;2023-07-29T11:37:50;20.92;;;5.05;;
35074;SDS011;21260;34.984;32.490;2023-07-29T11:40:18;11.18;;;4.85;;
35074;SDS011;21260;34.984;32.490;2023-07-29T11:42:49;12.77;;;4.90;;
35074;SDS011;21260;34.984;32.490;2023-07-29T11:45:18;16.85;;;5.28;;
35074;SDS011;21260;34.984;32.490;2023-07-29T11:47:46;8.95;;;4.72;;
35074;SDS011;21260;34.984;32.490;2023-07-29T11:50:13;16.40;;;4.95;;
35074;SDS011;21260;34.984;32.490;2023-07-29T11:52:41;16.33;;;5.47;;
35074;SDS011;21260;34.984;32.490;2023-07-29T11:55:10;16.70;;;5.50;;
35074;SDS011;21260;34.984;32.490;2023-07-29T11:57:39;14.32;;;4.60;;
35074;SDS011;21260;34.984;32.490;2023-07-29T12:00:07;12.27;;;4.60;;
35074;SDS011;21260;34.984;32.490;2023-07-29T12:02:36;15.23;;;5.07;;
35074;SDS011;21260;34.984;32.490;2023-07-29T12:05:11;11.50;;;4.75;;
35074;SDS011;21260;34.984;32.490;2023-07-29T12:07:41;7.97;;;4.40;;
35074;SDS011;21260;34.984;32.490;2023-07-29T12:10:09;15.93;;;5.32;;
35074;SDS011;21260;34.984;32.490;2023-07-29T12:12:46;13.23;;;4.88;;
35074;SDS011;21260;34.984;32.490;2023-07-29T12:15:21;9.55;;;4.60;;
35074;SDS011;21260;34.984;32.490;2023-07-29T12:17:53;15.27;;;5.13;;
35074;SDS011;21260;34.984;32.490;2023-07-29T12:20:21;20.92;;;5.47;;
35074;SDS011;21260;34.984;32.490;2023-07-29T12:22:58;10.63;;;4.70;;
35074;SDS011;21260;34.984;32.490;2023-07-29T12:25:31;9.82;;;4.97;;
35074;SDS011;21260;34.984;32.490;2023-07-29T12:28:01;14.30;;;4.90;;
35074;SDS011;21260;34.984;32.490;2023-07-29T12:30:32;9.88;;;4.90;;
35074;SDS011;21260;34.984;32.490;2023-07-29T12:32:58;11.60;;;5.00;;
35074;SDS011;21260;34.984;32.490;2023-07-29T12:35:24;13.75;;;4.82;;
35074;SDS011;21260;34.984;32.490;2023-07-29T12:38:02;10.32;;;4.82;;
35074;SDS011;21260;34.984;32.490;2023-07-29T12:40:28;14.55;;;5.30;;
35074;SDS011;21260;34.984;32.490;2023-07-29T12:42:55;13.80;;;4.97;;
35074;SDS011;21260;34.984;32.490;2023-07-29T12:45:22;15.48;;;5.10;;
35074;SDS011;21260;34.984;32.490;2023-07-29T12:47:52;14.80;;;4.95;;
35074;SDS011;21260;34.984;32.490;2023-07-29T12:50:19;10.15;;;4.70;;
35074;SDS011;21260;34.984;32.490;2023-07-29T12:52:45;14.98;;;5.47;;
35074;SDS011;21260;34.984;32.490;2023-07-29T12:55:11;14.23;;;4.50;;
35074;SDS011;21260;34.984;32.490;2023-07-29T12:57:39;14.43;;;5.75;;
35074;SDS011;21260;34.984;32.490;2023-07-29T13:00:08;17.55;;;5.03;;
35074;SDS011;21260;34.984;32.490;2023-07-29T13:02:35;9.75;;;4.70;;
35074;SDS011;21260;34.984;32.490;2023-07-29T13:05:01;11.32;;;4.53;;
35074;SDS011;21260;34.984;32.490;2023-07-29T13:07:28;15.05;;;5.13;;
35074;SDS011;21260;34.984;32.490;2023-07-29T13:09:54;14.93;;;5.07;;
35074;SDS011;21260;34.984;32.490;2023-07-29T13:12:20;8.93;;;4.93;;
35074;SDS011;21260;34.984;32.490;2023-07-29T13:14:46;11.18;;;4.97;;
35074;SDS011;21260;34.984;32.490;2023-07-29T13:17:12;12.60;;;4.93;;
35074;SDS011;21260;34.984;32.490;2023-07-29T13:19:39;11.38;;;4.75;;
35074;SDS011;21260;34.984;32.490;2023-07-29T13:22:05;14.70;;;4.90;;
35074;SDS011;21260;34.984;32.490;2023-07-29T13:24:32;15.15;;;4.78;;
35074;SDS011;21260;34.984;32.490;2023-07-29T13:26:58;9.35;;;4.30;;
35074;SDS011;21260;34.984;32.490;2023-07-29T13:29:24;10.63;;;4.25;;
35074;SDS011;21260;34.984;32.490;2023-07-29T13:31:50;13.23;;;4.63;;
35074;SDS011;21260;34.984;32.490;2023-07-29T13:34:16;7.18;;;4.18;;
35074;SDS011;21260;34.984;32.490;2023-07-29T13:36:43;12.60;;;4.75;;
35074;SDS011;21260;34.984;32.490;2023-07-29T13:39:09;14.00;;;4.63;;
35074;SDS011;21260;34.984;32.490;2023-07-29T13:41:35;13.38;;;4.63;;
35074;SDS011;21260;34.984;32.490;2023-07-29T13:44:02;11.68;;;4.72;;
35074;SDS011;21260;34.984;32.490;2023-07-29T13:46:28;8.85;;;4.38;;
35074;SDS011;21260;34.984;32.490;2023-07-29T13:48:54;10.35;;;4.68;;
35074;SDS011;21260;34.984;32.490;2023-07-29T13:51:21;11.73;;;4.80;;
35074;SDS011;21260;34.984;32.490;2023-07-29T13:53:47;12.98;;;4.70;;
35074;SDS011;21260;34.984;32.490;2023-07-29T13:56:13;8.25;;;4.38;;
35074;SDS011;21260;34.984;32.490;2023-07-29T13:58:40;12.32;;;4.40;;
35074;SDS011;21260;34.984;32.490;2023-07-29T14:01:06;9.55;;;4.28;;
35074;SDS011;21260;34.984;32.490;2023-07-29T14:03:32;14.40;;;4.70;;
35074;SDS011;21260;34.984;32.490;2023-07-29T14:05:59;10.23;;;4.47;;
35074;SDS011;21260;34.984;32.490;2023-07-29T14:08:25;13.88;;;4.57;;
35074;SDS011;21260;34.984;32.490;2023-07-29T14:10:51;12.45;;;4.72;;
35074;SDS011;21260;34.984;32.490;2023-07-29T14:13:17;11.80;;;4.30;;
35074;SDS011;21260;34.984;32.490;2023-07-29T14:15:43;10.85;;;5.05;;
35074;SDS011;21260;34.984;32.490;2023-07-29T14:18:10;12.40;;;4.55;;
35074;SDS011;21260;34.984;32.490;2023-07-29T14:20:36;15.05;;;4.05;;
35074;SDS011;21260;34.984;32.490;2023-07-29T14:23:02;9.93;;;4.15;;
35074;SDS011;21260;34.984;32.490;2023-07-29T14:25:28;12.63;;;4.32;;
35074;SDS011;21260;34.984;32.490;2023-07-29T14:27:55;11.52;;;4.55;;
35074;SDS011;21260;34.984;32.490;2023-07-29T14:30:21;13.65;;;4.72;;
35074;SDS011;21260;34.984;32.490;2023-07-29T14:32:47;16.95;;;4.68;;
35074;SDS011;21260;34.984;32.490;2023-07-29T14:35:14;7.95;;;4.45;;
35074;SDS011;21260;34.984;32.490;2023-07-29T14:37:40;11.55;;;4.13;;
35074;SDS011;21260;34.984;32.490;2023-07-29T14:40:06;12.73;;;4.50;;
35074;SDS011;21260;34.984;32.490;2023-07-29T14:42:33;11.13;;;4.95;;
35074;SDS011;21260;34.984;32.490;2023-07-29T14:44:59;13.82;;;5.10;;
35074;SDS011;21260;34.984;32.490;2023-07-29T14:47:25;13.23;;;4.45;;
35074;SDS011;21260;34.984;32.490;2023-07-29T14:49:51;10.88;;;4.65;;
35074;SDS011;21260;34.984;32.490;2023-07-29T14:52:18;10.88;;;4.40;;
35074;SDS011;21260;34.984;32.490;2023-07-29T14:54:44;13.15;;;4.50;;
35074;SDS011;21260;34.984;32.490;2023-07-29T14:57:10;12.00;;;4.47;;
35074;SDS011;21260;34.984;32.490;2023-07-29T14:59:37;12.65;;;4.38;;